Flight Track Log - Related Links

Times and Time Zones

All times are in EST time to prevent confusion due to time zone crossing. See the SWA1542 flight status page for this flight to view local times or setup timezone preferences in your user account.

Time Position Orientation Groundspeed Altitude Reporting Facility
EST Latitude Longitude Course Direction KTS MPH feet Rate Location/Type
Sat 10:22:36 PM 41.7833 -87.8333 241° Southwest 220 253 3,700  Level Chicago TRACON
Sat 10:23:54 PM 41.7400 -87.9397 241° Southwest 242 278 8,000 3,194 Climbing Chicago Center
Sat 10:24:55 PM 41.7383 -88.0333 269° West 257 296 11,100 2,508 Climbing Chicago Center
Sat 10:25:56 PM 41.7464 -88.1322 276° West 267 307 13,100 1,820 Climbing Chicago Center
Sat 10:26:57 PM 41.7564 -88.2569 276° West 320 368 14,800 1,537 Climbing Chicago Center
Sat 10:27:57 PM 41.7650 -88.3828 275° West 339 390 16,200 1,686 Climbing Chicago Center
Sat 10:28:58 PM 41.7750 -88.5147 276° West 350 403 18,200 2,016 Climbing Chicago Center
Sat 10:29:59 PM 41.7850 -88.6508 276° West 365 420 20,300 1,967 Climbing Chicago Center
Sat 10:31:00 PM 41.7944 -88.7972 275° West 391 450 22,200 1,820 Climbing Chicago Center
Sat 10:32:01 PM 41.7778 -88.9533 262° West 426 490 24,000 1,785 Climbing Chicago Center
Sat 10:33:01 PM 41.7561 -89.1117 260° West 433 498 25,800 1,686 Climbing Chicago Center
Sat 10:34:02 PM 41.7347 -89.2764 260° West 448 516 27,400 1,525 Climbing Chicago Center
Sat 10:35:03 PM 41.7125 -89.4417 260° West 453 521 28,900 1,721 Climbing Chicago Center
Sat 10:36:04 PM 41.6892 -89.6139 260° West 453 521 30,900 1,525 Climbing Chicago Center
Sat 10:37:05 PM 41.6592 -89.7711 256° West 436 502 32,000 893 Climbing Chicago Center
Sat 10:38:05 PM 41.6111 -89.9225 247° West 440 506 32,700 1,537 Climbing Chicago Center
Sat 10:39:06 PM 41.5644 -90.0669 247° West 426 490 35,100 1,574 Climbing Chicago Center
Sat 10:40:07 PM 41.5203 -90.2047 247° West 408 470 35,900 744 Climbing Chicago Center
Sat 10:41:07 PM 41.4739 -90.3461 246° West 415 478 36,600 645 Climbing Chicago Center
Sat 10:42:08 PM 41.4275 -90.4878 246° West 418 481 37,200 639 Climbing Chicago Center
Sat 10:43:09 PM 41.3806 -90.6319 247° West 424 488 37,900 393 Climbing Chicago Center
Sat 10:44:10 PM 41.3308 -90.7789 246° West 433 498 38,000 50 Climbing Chicago Center
Sat 10:45:10 PM 41.2831 -90.9219 246° West 429 494 38,000  Level Chicago Center
Sat 10:46:11 PM 41.2353 -91.0661 246° West 427 491 38,000  Level Chicago Center
Sat 10:47:12 PM 41.1772 -91.2367 246° West 423 487 38,000  Level Chicago Center
Sat 10:48:12 PM 41.1289 -91.3786 246° West 423 487 38,000  Level Chicago Center
Sat 10:49:13 PM 41.0811 -91.5211 246° West 424 488 38,000  Level Chicago Center
Sat 10:50:13 PM 41.0331 -91.6614 246° West 421 484 38,000  Level Chicago Center
Sat 10:51:14 PM 40.9867 -91.7961 246° West 419 482 38,000  Level Chicago Center
Sat 10:52:15 PM 40.9389 -91.9342 245° Southwest 417 480 38,000  Level Chicago Center
Sat 10:53:15 PM 40.8906 -92.0736 245° Southwest 420 483 38,000  Level Chicago Center
Sat 10:54:16 PM 40.8419 -92.2103 245° Southwest 418 481 38,000  Level Chicago Center
Sat 10:55:16 PM 40.7939 -92.3486 245° Southwest 418 481 38,000  Level Chicago Center
Sat 10:56:17 PM 40.7453 -92.4875 245° Southwest 420 483 38,000  Level Chicago Center
Sat 10:57:18 PM 40.6867 -92.6536 245° Southwest 423 487 38,000  Level Chicago Center
Sat 10:58:18 PM 40.6361 -92.7928 244° Southwest 426 490 38,000  Level Chicago Center
Sat 10:59:19 PM 40.5867 -92.9306 245° Southwest 426 490 38,000  Level Chicago Center
Sat 11:00:19 PM 40.5375 -93.0697 245° Southwest 424 488 38,000  Level Chicago Center
Sat 11:01:20 PM 40.4875 -93.2083 245° Southwest 426 490 38,000  Level Chicago Center
Sat 11:02:20 PM 40.4386 -93.3464 245° Southwest 423 487 38,000  Level Chicago Center
Sat 11:03:21 PM 40.4003 -93.4906 251° West 423 487 38,000  Level Chicago Center
Sat 11:04:21 PM 40.3608 -93.6328 250° West 421 484 38,000  Level Chicago Center
Sat 11:05:22 PM 40.3233 -93.7742 251° West 416 479 38,000  Level Chicago Center
Sat 11:06:22 PM 40.2867 -93.9169 251° West 416 479 38,000  Level Chicago Center
Sat 11:07:23 PM 40.2492 -94.0586 251° West 415 478 38,000  Level Chicago Center
Sat 11:08:23 PM 40.2111 -94.2011 251° West 417 480 38,000  Level Chicago Center
Sat 11:09:24 PM 40.1733 -94.3433 251° West 416 479 38,000  Level Chicago Center
Sat 11:10:53 PM 40.1108 -94.5733 251° West 418 481 38,000  Level Kansas City Center
Sat 11:11:54 PM 40.0753 -94.7114 251° West 418 481 38,000  Level Kansas City Center
Sat 11:12:54 PM 40.0311 -94.8736 250° West 423 487 38,000  Level Kansas City Center
Sat 11:13:55 PM 39.9925 -95.0122 250° West 425 489 38,000  Level Kansas City Center
Sat 11:14:56 PM 39.9550 -95.1536 251° West 429 494 38,000  Level Kansas City Center
Sat 11:15:56 PM 39.9094 -95.3172 250° West 430 495 38,000  Level Kansas City Center
Sat 11:16:57 PM 39.8714 -95.4561 250° West 430 495 38,000  Level Kansas City Center
Sat 11:17:57 PM 39.8314 -95.5964 250° West 431 496 38,000  Level Kansas City Center
Sat 11:18:58 PM 39.7856 -95.7600 250° West 431 496 38,000  Level Kansas City Center
Sat 11:19:59 PM 39.7456 -95.9014 250° West 435 501 38,000  Level Kansas City Center
Sat 11:20:59 PM 39.7056 -96.0411 250° West 434 499 38,000  Level Kansas City Center
Sat 11:22:00 PM 39.6597 -96.2031 250° West 433 498 38,000  Level Kansas City Center
Sat 11:23:00 PM 39.6186 -96.3433 249° West 433 498 38,000  Level Kansas City Center
Sat 11:24:01 PM 39.5786 -96.4822 250° West 433 498 38,000  Level Kansas City Center
Sat 11:25:02 PM 39.5319 -96.6444 250° West 430 495 38,000  Level Kansas City Center
Sat 11:26:02 PM 39.4889 -96.7828 248° West 430 495 38,000  Level Kansas City Center
Sat 11:27:03 PM 39.4508 -96.9206 250° West 430 495 38,000  Level Kansas City Center
Sat 11:28:03 PM 39.4017 -97.0806 248° West 430 495 38,000  Level Kansas City Center
Sat 11:29:04 PM 39.3600 -97.2208 249° West 431 496 38,000  Level Kansas City Center
Sat 11:30:05 PM 39.3186 -97.3594 249° West 432 497 38,000  Level Kansas City Center
Sat 11:31:05 PM 39.2686 -97.5278 249° West 433 498 38,000  Level Kansas City Center
Sat 11:32:06 PM 39.2272 -97.6661 249° West 443 510 38,000  Level Kansas City Center
Sat 11:33:06 PM 39.1842 -97.8053 248° West 441 507 38,000  Level Kansas City Center
Sat 11:34:07 PM 39.1397 -97.9556 249° West 443 510 38,000  Level Kansas City Center
Sat 11:35:07 PM 39.0939 -98.1039 248° West 445 512 38,000  Level Kansas City Center
Sat 11:36:08 PM 39.0472 -98.2525 248° West 446 513 38,000  Level Kansas City Center
Sat 11:37:09 PM 39.0014 -98.4006 248° West 447 514 38,000  Level Kansas City Center
Sat 11:38:09 PM 38.9553 -98.5489 248° West 448 516 38,000  Level Kansas City Center
Sat 11:39:10 PM 38.9086 -98.6958 248° West 448 516 38,000  Level Kansas City Center
Sat 11:40:10 PM 38.8525 -98.8733 248° West 449 517 38,000  Level Kansas City Center
Sat 11:41:11 PM 38.8061 -99.0214 248° West 449 517 38,000  Level Kansas City Center
Sat 11:42:11 PM 38.7589 -99.1692 248° West 449 517 38,000  Level Kansas City Center
Sat 11:43:12 PM 38.7131 -99.3147 248° West 447 514 38,000  Level Kansas City Center
Sat 11:44:13 PM 38.6653 -99.4636 248° West 448 516 38,000  Level Kansas City Center
Sat 11:45:13 PM 38.6194 -99.6028 247° West 448 516 38,000  Level Kansas City Center
Sat 11:46:14 PM 38.5653 -99.7681 247° West 450 518 38,000  Level Kansas City Center
Sat 11:47:14 PM 38.5194 -99.9114 248° West 452 520 38,000  Level Kansas City Center
Sat 11:48:15 PM 38.4714 -100.0533 247° West 454 522 38,000  Level Kansas City Center
Sat 11:49:15 PM 38.4158 -100.2200 247° West 454 522 38,000  Level Kansas City Center
Sat 11:50:16 PM 38.3686 -100.3625 247° West 455 524 38,000  Level Kansas City Center
Sat 11:51:16 PM 38.3197 -100.5075 247° West 462 532 38,000  Level Kansas City Center
Sat 11:52:17 PM 38.2636 -100.6728 247° West 462 532 38,000  Level Kansas City Center
Sat 11:53:17 PM 38.2153 -100.8156 247° West 462 532 38,000  Level Kansas City Center
Sat 11:54:18 PM 38.1678 -100.9567 247° West 461 531 38,000  Level Kansas City Center
Sat 11:55:18 PM 38.1111 -101.1206 246° West 460 529 38,000  Level Kansas City Center
Sat 11:56:19 PM 38.0622 -101.2619 246° West 460 529 38,000  Level Kansas City Center
Sat 11:57:19 PM 38.0131 -101.4044 246° West 461 531 38,000  Level Kansas City Center
Sat 11:58:20 PM 37.9567 -101.5672 246° West 460 529 38,000  Level Kansas City Center
Sat 11:59:20 PM 37.9072 -101.7100 246° West 460 529 38,000  Level Kansas City Center
Sun 12:00:21 AM 37.8575 -101.8517 246° West 460 529 38,000  Level Kansas City Center
Sun 12:01:21 AM 37.7983 -102.0172 246° West 461 531 38,000  Level Kansas City Center
Sun 12:02:21 AM 37.7492 -102.1581 246° West 461 531 38,000  Level Kansas City Center
Sun 12:03:22 AM 37.6986 -102.3000 246° West 461 531 38,000  Level Kansas City Center
Sun 12:04:23 AM 37.6556 -102.4175 245° Southwest 461 531 38,000  Level Denver Center
Sun 12:05:26 AM 37.5900 -102.6075 247° West 457 526 38,000  Level Denver Center
Sun 12:06:27 AM 37.5386 -102.7467 245° Southwest 456 525 38,000  Level Denver Center
Sun 12:07:25 AM 37.4894 -102.8861 246° West 454 522 38,000  Level Denver Center
Sun 12:08:26 AM 37.4297 -103.0478 245° Southwest 454 522 38,000  Level Denver Center
Sun 12:09:51 AM 37.3536 -103.2492 245° Southwest 456 525 38,000  Level Albuquerque Center
Sun 12:10:52 AM 37.3014 -103.3881 245° Southwest 459 528 38,000  Level Albuquerque Center
Sun 12:11:29 AM 37.2672 -103.4886 247° West 456 525 38,000  Level Denver Center
Sun 12:12:30 AM 37.2142 -103.6289 245° Southwest 458 527 38,000  Level Denver Center
Sun 12:13:29 AM 37.1631 -103.7683 245° Southwest 458 527 38,000  Level Denver Center
Sun 12:14:31 AM 37.1106 -103.9083 245° Southwest 458 527 38,000  Level Denver Center
Sun 12:15:31 AM 37.0492 -104.0697 245° Southwest 457 526 38,000  Level Denver Center
Sun 12:16:30 AM 36.9961 -104.2078 244° Southwest 457 526 38,000  Level Denver Center
Sun 12:17:30 AM 36.9433 -104.3486 245° Southwest 464 534 38,000  Level Denver Center
Sun 12:18:33 AM 36.8908 -104.4883 245° Southwest 464 534 38,000  Level Denver Center
Sun 12:19:31 AM 36.8258 -104.6544 244° Southwest 463 533 38,000  Level Denver Center
Sun 12:20:32 AM 36.7747 -104.7886 245° Southwest 462 532 38,000  Level Denver Center
Sun 12:21:34 AM 36.7200 -104.9256 244° Southwest 462 532 38,000  Level Denver Center
Sun 12:22:32 AM 36.6639 -105.0689 244° Southwest 462 532 38,000  Level Denver Center
Sun 12:23:35 AM 36.6033 -105.2236 244° Southwest 462 532 38,000  Level Denver Center
Sun 12:24:35 AM 36.5497 -105.3606 244° Southwest 462 532 38,000  Level Denver Center
Sun 12:25:33 AM 36.4856 -105.5214 244° Southwest 463 533 38,000  Level Denver Center
Sun 12:26:35 AM 36.4375 -105.6422 244° Southwest 463 533 38,000  Level Denver Center
Sun 12:28:03 AM 36.3522 -105.8586 244° Southwest 467 537 38,000  Level Albuquerque Center
Sun 12:29:04 AM 36.2944 -106.0022 244° Southwest 468 539 38,000  Level Albuquerque Center
Sun 12:30:04 AM 36.2372 -106.1467 244° Southwest 469 540 38,000  Level Albuquerque Center
Sun 12:31:05 AM 36.1667 -106.3186 243° Southwest 470 541 38,000  Level Albuquerque Center
Sun 12:32:05 AM 36.1092 -106.4636 244° Southwest 472 543 38,000  Level Albuquerque Center
Sun 12:33:06 AM 36.0514 -106.6025 243° Southwest 470 541 38,000  Level Albuquerque Center
Sun 12:34:07 AM 35.9956 -106.7406 243° Southwest 470 541 38,000  Level Albuquerque Center
Sun 12:35:07 AM 35.9289 -106.9017 243° Southwest 472 543 38,000  Level Albuquerque Center
Sun 12:36:08 AM 35.8697 -107.0414 242° Southwest 476 548 38,000  Level Albuquerque Center
Sun 12:37:08 AM 35.8119 -107.1797 243° Southwest 476 548 38,000  Level Albuquerque Center
Sun 12:38:09 AM 35.7458 -107.3417 243° Southwest 475 547 38,000  Level Albuquerque Center
Sun 12:39:09 AM 35.6875 -107.4817 243° Southwest 477 549 38,000  Level Albuquerque Center
Sun 12:40:10 AM 35.6283 -107.6217 243° Southwest 480 552 38,000  Level Albuquerque Center
Sun 12:41:10 AM 35.5694 -107.7622 243° Southwest 482 555 38,000  Level Albuquerque Center
Sun 12:42:11 AM 35.4992 -107.9258 242° Southwest 483 556 38,000  Level Albuquerque Center
Sun 12:43:11 AM 35.4400 -108.0647 242° Southwest 480 552 38,000  Level Albuquerque Center
Sun 12:44:12 AM 35.3806 -108.2036 242° Southwest 479 551 38,000  Level Albuquerque Center
Sun 12:45:13 AM 35.3117 -108.3669 243° Southwest 481 554 38,000  Level Albuquerque Center
Sun 12:46:13 AM 35.2511 -108.5056 242° Southwest 481 554 38,000  Level Albuquerque Center
Sun 12:47:14 AM 35.1908 -108.6442 242° Southwest 481 554 38,000  Level Albuquerque Center
Sun 12:48:14 AM 35.1297 -108.7831 242° Southwest 482 555 38,000  Level Albuquerque Center
Sun 12:49:15 AM 35.0594 -108.9439 242° Southwest 480 552 38,000  Level Albuquerque Center
Sun 12:50:15 AM 34.9983 -109.0808 241° Southwest 480 552 38,000  Level Albuquerque Center
Sun 12:51:15 AM 34.9408 -109.2200 243° Southwest 479 551 38,000  Level Albuquerque Center
Sun 12:52:16 AM 34.8817 -109.3867 247° West 478 550 38,000  Level Albuquerque Center
Sun 12:53:16 AM 34.8283 -109.5314 246° West 484 557 38,000  Level Albuquerque Center
Sun 12:54:17 AM 34.7681 -109.6681 242° Southwest 482 555 38,000  Level Albuquerque Center
Sun 12:55:17 AM 34.7008 -109.8017 239° Southwest 483 556 38,000  Level Albuquerque Center
Sun 12:56:18 AM 34.6247 -109.9547 239° Southwest 477 549 38,000 -744 Level Albuquerque Center
Sun 12:57:18 AM 34.5592 -110.0850 239° Southwest 473 544 36,500 -2,132 Descending Albuquerque Center
Sun 12:58:19 AM 34.4922 -110.2178 239° Southwest 477 549 33,700 -2,926 Descending Albuquerque Center
Sun 12:59:19 AM 34.4067 -110.3850 238° Southwest 511 588 30,600 -2,727 Descending Albuquerque Center
Sun 01:00:20 AM 34.3325 -110.5397 240° Southwest 535 616 28,200 -2,033 Descending Albuquerque Center
Sun 01:01:20 AM 34.2528 -110.6869 237° Southwest 518 596 26,500 -1,785 Descending Albuquerque Center
Sun 01:02:21 AM 34.1800 -110.8275 238° Southwest 511 588 24,600 -1,785 Descending Albuquerque Center
Sun 01:03:21 AM 34.1097 -110.9653 238° Southwest 493 567 22,900 -1,869 Descending Albuquerque Center
Sun 01:04:23 AM 34.0403 -111.0983 238° Southwest 476 548 20,800 -2,098 Descending Albuquerque Center
Sun 01:05:24 AM 33.9747 -111.2267 238° Southwest 457 526 18,600 -2,083 Descending Albuquerque Center
Sun 01:06:24 AM 33.9111 -111.3483 238° Southwest 434 499 16,600 -1,736 Descending Albuquerque Center
Sun 01:07:25 AM 33.8517 -111.4617 238° Southwest 399 459 15,100 -1,488 Descending Albuquerque Center
Sun 01:08:25 AM 33.7989 -111.5617 238° Southwest 355 409 13,600 -1,785 Descending Albuquerque Center
Sun 01:09:26 AM 33.7489 -111.6547 237° Southwest 332 382 11,500 -1,736 Descending Albuquerque Center
Sun 01:10:26 AM 33.6997 -111.7475 238° Southwest 328 377 10,100 -744 Descending Albuquerque Center
Sun 01:11:27 AM 33.6517 -111.8342 236° Southwest 312 359 10,000 -566 Descending Albuquerque Center
Sun 01:12:12 AM 33.6167 -111.9000 237° Southwest 307 353 9,100 -1,027 Descending Phoenix TRACON
Sun 01:13:18 AM 33.5667 -112.0000 239° Southwest 274 315 8,100 -1,048 Descending Phoenix TRACON
Sun 01:14:18 AM 33.5333 -112.0667 239° Southwest 277 319 6,900 -1,000 Descending Phoenix TRACON
Sun 01:15:18 AM 33.5333 -112.1500 270° West 266 306 6,100 -842 Descending Phoenix TRACON
Sun 01:16:12 AM 33.5167 -112.2333 257° West 252 290 5,300 -1,158 Descending Phoenix TRACON
Sun 01:17:12 AM 33.4667 -112.2667 209° Southwest 220 253 3,900 -1,043 Descending Phoenix TRACON
Sun 01:18:30 AM 33.4333 -112.1833 116° Southeast 168 193 2,900 -522 Descending Phoenix TRACON
Sun 01:19:30 AM 33.4333 -112.1333 90° East 161 185 2,700 -429 Descending Phoenix TRACON
Sun 01:20:36 AM 33.4333 -112.0833 90° East 134 154 2,000 -650 Descending Phoenix TRACON
Sun 01:21:30 AM 33.4333 -112.0500 90° East 132 152 1,400 -667 Descending Phoenix TRACON

Login

Don't have an account? Register now (free) for customized features, flight alerts, and more!